Miho Yonago Airport
RJOH : now visible

Airfield :











YOU CAN JOIN US ON...

 
LOGIN :

Register | Disclaimer

   EN    FR    IT 

 









Legend :    VFR   Marginal VFR   IFR   Intensive IFR   Very Intensive IFR
Visi :
Ceiling :
>= 8 km
>= 3000ft
5 to 8 km
1000 to 3000 ft
1500m to 5 km
500 to 1000 ft
800 to 1500m
200 to 500 ft
< 800m
< 200 ft
Symbols :   Thunderstorms  Fog  Heavy snow  Heavy precipitations  Wind > 20 kt







- Airport Elevation : 20 ft
- IATA code : YGJ


RJOH - Miho Yonago

CURRENT METAR :
  • 211700Z 21004KT 9999 FEW050 SCT070 BKN/// 14/11 Q1013

EXPIRED METARs :
  • 211600Z 21004KT 9999 FEW050 BKN070 BKN/// 15/12 Q1013
  • 211500Z 21004KT 9999 FEW050 BKN070 15/12 Q1014

TAF TAF RJOH
Valid from the 21 at 18:00 until the 23 at 00:00 UTC


211708Z 2118/2300 24004KT 9999 FEW010 SCT020 BKN060
BECMG 2118/2120 04008KT
TEMPO 2120/2123 3000 BR FEW004 BKN008 BKN012
RJJJ FIR / Asia



MET'MAP, your aeronautical weather chart ! - Copyright ORBIFLY December 2007 - Disclaimer

ORBIFLY MET'MAP TEAM :

Programming & Development : Alexandra Zaïnal
Concept & Development : Baudouin d'Aumeries
Co-Development & Prog : Marc-Olivier Méhu
Technical & hardware support : Manuel Goepfert

Contact : metmap@orbifly.com




SOURCES & CREDITS :

   NOAA       Earth
Advisory